HomeShort term forecast

Short term forecast

Graphical weather forecast for the next 48 hours for Montreal:

Short term forecast

This weather forecast is automatically refreshed every 3 hours.

Hourly Experimental Forecast for the next 48 hours ®

Overall summary: Clear throughout the day.

 Date & Hour   Temp   Feel   Baro   Hum   Speed & Bearing   Wind Gust   Precip.%   Precip.   Visibility   Cloud cover   Conditions 
 02/08/2021 - 18:00  23.6°C  23.6°C  1013.8 hPa  46%  15.9 km/h   22.3 km/h  0%  --  16.1km  34%  Partly Cloudy 
 02/08/2021 - 19:00  22.4°C  22.4°C  1014.1 hPa  51%  14.3 km/h   23.6 km/h  0%  --  16.1km  23%  Clear 
 02/08/2021 - 20:00  21.2°C  21.2°C  1014.4 hPa  58%  11.0 km/h   23.0 km/h  0%  --  16.1km  16%  Clear 
 02/08/2021 - 21:00  20.0°C  20.0°C  1014.9 hPa  62%  10.1 km/h   18.6 km/h  0%  --  16.1km  18%  Clear 
 02/08/2021 - 22:00  19.0°C  19.0°C  1015.3 hPa  65%  9.6 km/h   16.8 km/h  0%  --  16.1km  13%  Clear 
 02/08/2021 - 23:00  18.1°C  18.1°C  1015.6 hPa  67%  9.2 km/h   16.9 km/h  0%  --  16.1km  12%  Clear 
 03/08/2021 - 00:00  17.4°C  17.4°C  1015.8 hPa  70%  10.1 km/h   18.1 km/h  0%  --  16.1km  13%  Clear 
 03/08/2021 - 01:00  16.8°C  16.8°C  1015.8 hPa  72%  11.2 km/h   23.1 km/h  0%  --  16.1km  12%  Clear 
 03/08/2021 - 02:00  15.8°C  15.8°C  1015.8 hPa  75%  11.6 km/h   24.3 km/h  0%  --  16.1km  11%  Clear 
 03/08/2021 - 03:00  15.1°C  15.1°C  1015.9 hPa  80%  11.3 km/h   24.1 km/h  0%  --  16.1km  4%  Clear 
 03/08/2021 - 04:00  14.7°C  14.7°C  1015.8 hPa  83%  11.5 km/h   27.8 km/h  0%  --  16.1km  2%  Clear 
 03/08/2021 - 05:00  14.6°C  14.6°C  1015.9 hPa  85%  13.1 km/h   30.6 km/h  0%  --  16.1km  2%  Clear 
 03/08/2021 - 06:00  14.7°C  14.7°C  1016.2 hPa  87%  13.5 km/h   31.2 km/h  0%  --  16.1km  1%  Clear 
 03/08/2021 - 07:00  15.7°C  15.7°C  1016.3 hPa  86%  15.7 km/h   34.4 km/h  0%  --  16.1km  2%  Clear 
 03/08/2021 - 08:00  17.1°C  17.2°C  1016.6 hPa  87%  16.8 km/h   37.4 km/h  0%  --  16.1km  10%  Clear 
 03/08/2021 - 09:00  18.8°C  19.0°C  1016.7 hPa  84%  18.4 km/h   36.4 km/h  0%  --  16.1km  11%  Clear 
 03/08/2021 - 10:00  20.5°C  20.7°C  1016.2 hPa  79%  20.0 km/h   33.7 km/h  0%  --  16.1km  15%  Clear 
 03/08/2021 - 11:00  22.0°C  22.2°C  1016.2 hPa  74%  21.2 km/h   31.5 km/h  0%  --  16.1km  13%  Clear 
 03/08/2021 - 12:00  23.3°C  23.5°C  1016.0 hPa  70%  22.0 km/h   30.9 km/h  0%  --  16.1km  14%  Clear 
 03/08/2021 - 13:00  24.2°C  24.5°C  1015.7 hPa  67%  22.7 km/h   31.4 km/h  0%  --  16.1km  21%  Clear 
 03/08/2021 - 14:00  25.3°C  25.5°C  1015.6 hPa  63%  22.7 km/h   30.8 km/h  0%  --  16.1km  33%  Partly Cloudy 
 03/08/2021 - 15:00  26.1°C  26.4°C  1015.4 hPa  59%  22.8 km/h   29.8 km/h  0%  --  16.1km  28%  Clear 
 03/08/2021 - 16:00  26.7°C  27.5°C  1015.2 hPa  56%  22.5 km/h   28.9 km/h  0%  --  16.1km  31%  Clear 
 03/08/2021 - 17:00  26.6°C  27.4°C  1015.0 hPa  56%  21.5 km/h   28.3 km/h  1%  0.01 mm/h  16.1km  34%  Partly Cloudy 
 03/08/2021 - 18:00  25.8°C  26.0°C  1014.9 hPa  59%  19.2 km/h   27.6 km/h  1%  0.02 mm/h  16.1km  32%  Partly Cloudy 
 03/08/2021 - 19:00  24.7°C  24.9°C  1015.2 hPa  62%  16.8 km/h   28.9 km/h  1%  0.04 mm/h  16.1km  34%  Partly Cloudy 
 03/08/2021 - 20:00  23.4°C  23.5°C  1015.5 hPa  66%  15.3 km/h   35.7 km/h  2%  0.05 mm/h  16.1km  33%  Partly Cloudy 
 03/08/2021 - 21:00  22.1°C  22.2°C  1016.1 hPa  69%  13.9 km/h   36.9 km/h  2%  0.03 mm/h  16.1km  28%  Clear 
 03/08/2021 - 22:00  21.2°C  21.3°C  1016.7 hPa  72%  13.9 km/h   37.0 km/h  1%  0.01 mm/h  16.1km  35%  Partly Cloudy 
 03/08/2021 - 23:00  20.3°C  20.3°C  1017.2 hPa  74%  13.1 km/h   36.0 km/h  0%  --  16.1km  34%  Partly Cloudy 
 04/08/2021 - 00:00  19.6°C  19.6°C  1017.7 hPa  75%  12.2 km/h   34.8 km/h  0%  --  16.1km  38%  Partly Cloudy 
 04/08/2021 - 01:00  19.0°C  19.0°C  1017.7 hPa  77%  11.5 km/h   33.6 km/h  0%  --  16.1km  33%  Partly Cloudy 
 04/08/2021 - 02:00  18.6°C  18.6°C  1018.0 hPa  79%  10.7 km/h   31.2 km/h  0%  --  16.1km  33%  Partly Cloudy 
 04/08/2021 - 03:00  17.7°C  17.7°C  1018.1 hPa  82%  9.4 km/h   27.8 km/h  0%  --  16.1km  37%  Partly Cloudy 
 04/08/2021 - 04:00  16.9°C  16.9°C  1018.2 hPa  86%  8.2 km/h   24.9 km/h  0%  --  16.1km  26%  Clear 
 04/08/2021 - 05:00  16.3°C  16.3°C  1018.5 hPa  89%  7.4 km/h   22.9 km/h  0%  --  16.1km  23%  Clear 
 04/08/2021 - 06:00  16.1°C  16.1°C  1018.9 hPa  91%  6.8 km/h   20.4 km/h  0%  --  16.1km  24%  Clear 
 04/08/2021 - 07:00  16.7°C  16.9°C  1019.5 hPa  91%  6.6 km/h   17.6 km/h  0%  --  16.1km  40%  Partly Cloudy 
 04/08/2021 - 08:00  18.1°C  18.3°C  1020.0 hPa  91%  6.4 km/h   15.5 km/h  0%  --  16.1km  54%  Partly Cloudy 
 04/08/2021 - 09:00  19.6°C  19.9°C  1020.5 hPa  90%  5.9 km/h   14.3 km/h  0%  --  16.1km  68%  Mostly Cloudy 
 04/08/2021 - 10:00  21.3°C  21.8°C  1020.7 hPa  86%  5.4 km/h   12.9 km/h  0%  --  16.1km  65%  Mostly Cloudy 
 04/08/2021 - 11:00  22.8°C  23.3°C  1020.8 hPa  83%  5.0 km/h   12.2 km/h  0%  --  16.1km  61%  Mostly Cloudy 
 04/08/2021 - 12:00  23.9°C  24.4°C  1020.6 hPa  78%  5.3 km/h   12.0 km/h  0%  --  16.1km  63%  Mostly Cloudy 
 04/08/2021 - 13:00  24.8°C  25.3°C  1020.4 hPa  74%  6.0 km/h   12.5 km/h  0%  --  16.1km  66%  Mostly Cloudy 
 04/08/2021 - 14:00  26.0°C  26.4°C  1020.2 hPa  70%  5.4 km/h   10.8 km/h  0%  --  16.1km  61%  Mostly Cloudy 
 04/08/2021 - 15:00  26.8°C  28.3°C  1020.1 hPa  66%  5.6 km/h   9.7 km/h  0%  --  16.1km  41%  Partly Cloudy 
 04/08/2021 - 16:00  27.4°C  28.8°C  1019.6 hPa  62%  5.7 km/h   8.7 km/h  1%  0.01 mm/h  16.1km  40%  Partly Cloudy 
 04/08/2021 - 17:00  27.4°C  28.7°C  1019.3 hPa  62%  5.6 km/h   7.5 km/h  1%  0.01 mm/h  16.1km  48%  Partly Cloudy 

 

Past weather and reports

Past weatherFind in this section the past weather conditions, weather archive, graphics, reports and statistics.

Current conditions

Current weather condition for MontrealAll you need to know about the current weather conditions for Montreal. Weather data is updated every 10 minutes.

Weather forecast

Current Montreal weatherSince 2004, celinium.com website has provided accurate weather forecast for Montreal's island.